Time;durP1;ratioP1;P1;durP2;ratioP2;P2;SDS_P1;SDS_P2;PMS_P1;PMS_P2;Temp;Humidity;BMP_temperature;BMP_pressure;BME280_temperature;BME280_humidity;BME280_pressure;Samples;Min_cycle;Max_cycle;Signal;HPM_P1;HPM_P2
2022/12/25 00:01:20;;;;;;;29.20;9.15;;;;;;;7.46;100.00;101373.25;5009059;28;20037;-76
2022/12/25 00:03:46;;;;;;;27.88;9.07;;;;;;;7.47;100.00;101367.09;5009773;28;20026;-76
2022/12/25 00:06:11;;;;;;;31.90;9.60;;;;;;;7.49;100.00;101365.22;5010460;28;20079;-76
2022/12/25 00:08:38;;;;;;;27.83;8.30;;;;;;;7.50;100.00;101364.31;5028271;28;20021;-76
2022/12/25 00:11:07;;;;;;;33.88;9.60;;;;;;;7.52;100.00;101361.59;5029782;28;20669;-76
2022/12/25 00:13:32;;;;;;;35.10;9.77;;;;;;;7.53;100.00;101355.44;5010699;28;20891;-76
2022/12/25 00:15:57;;;;;;;27.17;9.70;;;;;;;7.54;100.00;101371.06;5010775;28;20029;-76
2022/12/25 00:18:23;;;;;;;32.88;9.23;;;;;;;7.56;100.00;101368.38;5029557;28;20140;-76
2022/12/25 00:21:00;;;;;;;33.30;8.85;;;;;;;7.61;100.00;101370.78;5029150;28;20178;-76
2022/12/25 00:23:26;;;;;;;27.52;9.45;;;;;;;7.60;100.00;101374.28;5028197;28;20037;-76
2022/12/25 00:25:53;;;;;;;30.67;9.20;;;;;;;7.61;100.00;101362.91;5029270;28;20025;-76
2022/12/25 00:28:22;;;;;;;32.45;9.75;;;;;;;7.62;100.00;101362.84;5008134;28;20052;-76
2022/12/25 00:30:47;;;;;;;28.00;10.15;;;;;;;7.63;100.00;101359.28;5014816;28;20030;-76
2022/12/25 00:33:13;;;;;;;30.02;9.25;;;;;;;7.64;100.00;101357.50;5013078;28;20045;-76
2022/12/25 00:35:42;;;;;;;34.80;9.85;;;;;;;7.66;100.00;101353.03;5022781;28;20041;-76
2022/12/25 00:38:08;;;;;;;22.60;9.40;;;;;;;7.71;100.00;101361.50;5011165;28;20032;-76
2022/12/25 00:40:39;;;;;;;33.15;10.35;;;;;;;7.73;100.00;101354.38;5027822;28;20033;-76
2022/12/25 00:43:05;;;;;;;29.73;10.18;;;;;;;7.75;100.00;101360.41;5027872;28;20024;-77
2022/12/25 00:45:37;;;;;;;32.75;10.98;;;;;;;7.75;100.00;101352.53;5009970;28;20033;-79
2022/12/25 00:48:05;;;;;;;34.35;10.85;;;;;;;7.74;100.00;101353.47;5008268;28;20051;-76
2022/12/25 00:50:31;;;;;;;29.05;10.38;;;;;;;7.78;100.00;101362.84;5025863;28;20044;-77
2022/12/25 00:52:56;;;;;;;30.05;10.90;;;;;;;7.79;100.00;101359.28;5010223;28;20029;-76
2022/12/25 00:55:21;;;;;;;26.85;10.75;;;;;;;7.81;100.00;101354.81;4994005;28;20467;-77
2022/12/25 00:57:47;;;;;;;32.17;11.00;;;;;;;7.82;100.00;101348.66;4993912;28;20032;-77
2022/12/25 01:00:13;;;;;;;31.80;11.82;;;;;;;7.82;100.00;101346.03;5028519;28;20025;-77
2022/12/25 01:02:39;;;;;;;26.42;10.60;;;;;;;7.85;100.00;101348.47;5029984;28;20037;-77
2022/12/25 01:05:05;;;;;;;28.98;10.88;;;;;;;7.85;100.00;101348.47;5030708;28;20021;-77
2022/12/25 01:07:30;;;;;;;31.52;10.48;;;;;;;7.88;100.00;101342.22;5012710;28;20076;-77
2022/12/25 01:12:42;;;;;;;29.30;10.20;;;;;;;7.89;100.00;101333.44;5031538;28;20044;-77
2022/12/25 01:15:11;;;;;;;26.35;10.52;;;;;;;7.89;100.00;101330.81;5013943;28;20029;-77
2022/12/25 01:17:37;;;;;;;32.72;10.65;;;;;;;7.93;100.00;101345.44;5030988;28;20029;-77
2022/12/25 01:20:06;;;;;;;25.75;10.05;;;;;;;7.92;100.00;101339.34;5031569;28;20033;-77
2022/12/25 01:22:31;;;;;;;30.27;11.27;;;;;;;7.95;100.00;101333.94;5032302;28;20064;-77
2022/12/25 01:24:57;;;;;;;25.70;11.20;;;;;;;7.98;100.00;101338.16;5019205;28;20041;-77
2022/12/25 01:27:22;;;;;;;25.67;10.63;;;;;;;8.01;100.00;101341.50;5015641;28;20056;-77
2022/12/25 01:29:49;;;;;;;28.13;10.27;;;;;;;8.00;100.00;101346.78;5020111;28;20076;-77
2022/12/25 01:32:14;;;;;;;27.35;10.65;;;;;;;8.00;100.00;101349.41;5014917;28;20873;-77
2022/12/25 01:34:40;;;;;;;24.95;10.38;;;;;;;8.03;100.00;101363.22;5014124;28;20037;-77
2022/12/25 01:37:07;;;;;;;32.72;10.93;;;;;;;8.04;100.00;101364.06;5032264;28;20049;-77
2022/12/25 01:39:33;;;;;;;29.63;11.13;;;;;;;8.03;100.00;101357.13;5031250;28;20029;-77
2022/12/25 01:41:58;;;;;;;27.65;11.00;;;;;;;8.03;100.00;101357.97;5027458;28;20049;-77
2022/12/25 01:44:36;;;;;;;24.85;10.20;;;;;;;8.07;100.00;101359.50;5011655;28;20160;-77
2022/12/25 01:47:06;;;;;;;23.30;10.52;;;;;;;8.06;100.00;101365.66;5010761;28;20032;-77
2022/12/25 01:49:37;;;;;;;23.33;10.35;;;;;;;8.06;100.00;101373.53;5013701;28;20487;-77
2022/12/25 01:52:15;;;;;;;27.73;11.60;;;;;;;8.09;100.00;101375.13;5031760;28;20017;-77
2022/12/25 01:55:02;;;;;;;27.38;11.02;;;;;;;8.11;100.00;101379.34;5030267;28;20029;-77
2022/12/25 01:57:33;;;;;;;26.63;11.63;;;;;;;8.10;100.00;101393.38;5027296;28;20100;-77
2022/12/25 01:59:59;;;;;;;27.75;11.10;;;;;;;8.12;100.00;101394.16;5026288;28;20025;-77
2022/12/25 02:02:26;;;;;;;23.65;10.77;;;;;;;8.09;100.00;101389.06;5029918;28;20034;-77
2022/12/25 02:05:19;;;;;;;24.77;10.52;;;;;;;8.13;100.00;101384.50;5029902;28;20033;-78
2022/12/25 02:07:47;;;;;;;26.02;10.57;;;;;;;8.12;100.00;101383.66;5029980;28;20037;-78
2022/12/25 02:10:12;;;;;;;22.05;10.70;;;;;;;8.12;100.00;101388.91;5030454;28;20550;-78
2022/12/25 02:12:38;;;;;;;24.33;10.85;;;;;;;8.14;100.00;101384.41;5028762;28;20034;-77
2022/12/25 02:15:15;;;;;;;25.75;10.65;;;;;;;8.13;100.00;101395.84;5016779;28;20112;-81
2022/12/25 02:17:50;;;;;;;27.02;10.73;;;;;;;8.17;100.00;101392.13;5020615;28;20540;-80
2022/12/25 02:20:34;;;;;;;23.95;10.98;;;;;;;8.21;100.00;101397.19;5029688;28;20390;-81
2022/12/25 02:23:41;;;;;;;23.83;9.70;;;;;;;8.20;100.00;101396.34;5010432;28;20029;-78
2022/12/25 02:26:40;;;;;;;27.77;10.45;;;;;;;8.20;100.00;101392.88;5029286;28;20033;-78
2022/12/25 02:29:33;;;;;;;22.48;10.38;;;;;;;8.18;100.00;101401.66;5026393;28;20037;-77
2022/12/25 02:32:10;;;;;;;27.45;10.63;;;;;;;8.19;100.00;101392.03;5025487;28;20053;-78
2022/12/25 02:35:03;;;;;;;23.20;10.05;;;;;;;8.18;100.00;101385.94;5028828;28;20052;-77
2022/12/25 02:37:50;;;;;;;23.30;9.85;;;;;;;8.21;100.00;101379.69;5030340;28;20385;-77
2022/12/25 02:40:25;;;;;;;19.55;9.45;;;;;;;8.21;100.00;101374.44;5012030;28;20041;-77
2022/12/25 03:08:28;;;;;;;22.73;10.18;;;;;;;8.17;100.00;101334.44;5029968;28;20052;-77
2022/12/25 03:13:54;;;;;;;21.63;10.18;;;;;;;8.14;100.00;101312.81;5030358;28;20048;-77
2022/12/25 03:27:24;;;;;;;21.60;9.38;;;;;;;7.99;100.00;101301.41;5009311;28;20073;-77
2022/12/25 03:33:05;;;;;;;20.83;9.27;;;;;;;7.93;100.00;101282.56;5014946;28;20037;-77
2022/12/25 03:35:45;;;;;;;18.15;8.07;;;;;;;7.90;100.00;101285.34;5010470;28;20053;-77
2022/12/25 04:37:22;;;;;;;14.57;5.60;;;;;;;7.69;100.00;101269.91;5029078;28;20052;-77
2022/12/25 04:39:47;;;;;;;13.38;5.53;;;;;;;7.71;100.00;101277.69;5031589;28;20037;-77
2022/12/25 04:42:13;;;;;;;18.45;5.57;;;;;;;7.76;100.00;101278.25;5032211;28;20028;-77
2022/12/25 04:44:38;;;;;;;20.52;5.68;;;;;;;7.77;100.00;101266.84;5031134;28;20041;-77
2022/12/25 04:47:04;;;;;;;15.40;5.40;;;;;;;7.82;100.00;101275.31;5031462;28;20028;-77
2022/12/25 04:49:40;;;;;;;12.20;5.10;;;;;;;7.82;100.00;101264.81;5031236;28;20033;-77
2022/12/25 04:52:06;;;;;;;12.48;4.80;;;;;;;7.82;100.00;101264.81;5025138;28;20052;-77
2022/12/25 04:54:34;;;;;;;11.45;4.50;;;;;;;7.82;100.00;101270.06;5010111;28;20022;-77
2022/12/25 04:56:59;;;;;;;14.38;4.90;;;;;;;7.82;100.00;101268.28;5024603;28;20474;-81
2022/12/25 04:59:24;;;;;;;11.40;4.05;;;;;;;7.80;100.00;101264.06;5031769;28;20112;-77
2022/12/25 05:01:50;;;;;;;11.40;4.50;;;;;;;7.79;100.00;101249.28;5033481;28;20025;-77
2022/12/25 05:04:16;;;;;;;14.00;4.32;;;;;;;7.79;100.00;101257.97;5032633;28;20370;-77
2022/12/25 05:06:41;;;;;;;13.00;4.53;;;;;;;7.77;100.00;101256.38;5028486;28;20030;-77
2022/12/25 05:09:07;;;;;;;9.90;4.03;;;;;;;7.78;100.00;101258.91;5031738;28;20091;-78
2022/12/25 05:11:32;;;;;;;11.57;3.72;;;;;;;7.79;100.00;101254.53;5030510;28;20108;-77
2022/12/25 05:13:58;;;;;;;10.60;3.60;;;;;;;7.80;100.00;101253.59;5033113;28;20104;-77
2022/12/25 05:16:24;;;;;;;10.90;3.83;;;;;;;7.80;100.00;101246.56;5032877;28;20056;-77
2022/12/25 05:18:51;;;;;;;13.68;4.32;;;;;;;7.82;100.00;101254.34;5032019;28;20035;-77
2022/12/25 05:21:16;;;;;;;10.43;3.70;;;;;;;7.84;100.00;101257.72;5032121;28;20031;-77
2022/12/25 05:23:47;;;;;;;13.63;4.55;;;;;;;7.86;100.00;101250.63;5029551;28;20108;-77
2022/12/25 05:26:16;;;;;;;8.70;3.38;;;;;;;7.89;100.00;101237.34;5021914;28;20105;-77
2022/12/25 05:28:42;;;;;;;13.50;3.80;;;;;;;7.92;100.00;101234.56;5014515;28;20052;-77
2022/12/25 05:31:07;;;;;;;9.73;3.90;;;;;;;7.93;100.00;101220.53;5013009;28;20412;-77
2022/12/25 05:33:32;;;;;;;10.57;3.60;;;;;;;7.94;100.00;101211.72;5013652;28;20077;-77
2022/12/25 05:36:08;;;;;;;10.45;3.85;;;;;;;7.96;100.00;101216.88;5013004;28;20041;-77
2022/12/25 05:38:37;;;;;;;11.18;3.78;;;;;;;7.99;100.00;101211.47;5029307;28;20033;-77
2022/12/25 05:41:05;;;;;;;7.25;3.42;;;;;;;7.99;100.00;101217.53;5015983;28;20037;-77
2022/12/25 05:43:31;;;;;;;10.70;3.53;;;;;;;8.02;100.00;101219.19;5025239;28;20049;-77
2022/12/25 05:45:56;;;;;;;9.95;3.33;;;;;;;8.01;100.00;101220.94;5031161;28;20048;-77
2022/12/25 05:48:23;;;;;;;10.27;3.50;;;;;;;7.99;100.00;101221.94;5029458;28;20042;-77
2022/12/25 05:50:48;;;;;;;8.23;3.58;;;;;;;8.03;100.00;101221.72;5031777;28;20115;-78
2022/12/25 05:53:15;;;;;;;10.55;3.40;;;;;;;8.05;100.00;101225.09;5030289;28;20056;-77
2022/12/25 05:55:44;;;;;;;10.20;3.53;;;;;;;8.07;100.00;101222.38;5011434;28;20489;-81
2022/12/25 05:58:11;;;;;;;10.90;3.55;;;;;;;8.06;100.00;101221.53;5010724;28;20044;-80
2022/12/25 06:00:36;;;;;;;8.38;3.33;;;;;;;8.07;100.00;101214.50;5013296;28;20040;-77
2022/12/25 06:03:03;;;;;;;8.27;3.28;;;;;;;8.10;100.00;101212.56;5030549;28;20025;-77
2022/12/25 06:05:29;;;;;;;11.85;3.40;;;;;;;8.13;100.00;101207.13;5012796;28;20052;-77
2022/12/25 06:07:55;;;;;;;9.68;3.30;;;;;;;8.14;100.00;101207.97;5030997;28;20107;-77
2022/12/25 06:10:20;;;;;;;7.30;3.05;;;;;;;8.16;100.00;101206.97;5030617;28;20171;-77
2022/12/25 06:12:45;;;;;;;9.07;3.20;;;;;;;8.17;100.00;101211.25;5029973;28;20545;-80
2022/12/25 06:15:11;;;;;;;10.35;2.92;;;;;;;8.16;100.00;101206.09;5029247;28;20505;-81
2022/12/25 06:17:37;;;;;;;7.45;2.75;;;;;;;8.17;100.00;101206.03;5032360;28;20052;-77
2022/12/25 06:20:07;;;;;;;13.02;3.45;;;;;;;8.20;100.00;101186.66;5029218;28;20083;-77
2022/12/25 06:22:38;;;;;;;8.82;3.45;;;;;;;8.21;100.00;101182.25;5030497;28;20068;-77
2022/12/25 06:25:04;;;;;;;8.35;3.28;;;;;;;8.23;100.00;101172.53;5031646;28;20040;-81
2022/12/25 06:27:29;;;;;;;8.32;2.80;;;;;;;8.23;100.00;101175.97;5029406;28;20379;-77
2022/12/25 06:29:54;;;;;;;7.78;3.38;;;;;;;8.24;100.00;101187.31;5026963;28;20048;-77
2022/12/25 06:32:20;;;;;;;7.90;3.15;;;;;;;8.23;100.00;101181.22;5030585;28;20068;-77
2022/12/25 06:34:45;;;;;;;6.65;2.72;;;;;;;8.27;100.00;101177.47;5012821;28;20059;-77
2022/12/25 06:37:10;;;;;;;9.18;2.92;;;;;;;8.27;100.00;101166.16;5006274;28;20018;-77
2022/12/25 06:39:36;;;;;;;7.40;2.97;;;;;;;8.25;100.00;101163.63;5020020;28;20477;-77
2022/12/25 06:42:04;;;;;;;8.65;2.90;;;;;;;8.25;100.00;101161.00;5029427;28;20010;-78
2022/12/25 06:44:29;;;;;;;7.97;2.97;;;;;;;8.27;100.00;101150.44;5023903;28;20398;-78
2022/12/25 06:46:55;;;;;;;7.25;2.80;;;;;;;8.28;100.00;101154.72;5014443;28;20100;-77
2022/12/25 06:49:20;;;;;;;8.82;2.80;;;;;;;8.28;100.00;101149.50;5012033;28;20048;-77
2022/12/25 06:51:49;;;;;;;9.55;3.58;;;;;;;8.27;100.00;101135.53;5028678;28;20022;-77
2022/12/25 06:54:14;;;;;;;7.05;3.00;;;;;;;8.29;100.00;101122.34;5012124;28;20041;-78
2022/12/25 06:56:39;;;;;;;7.35;3.03;;;;;;;8.30;100.00;101109.16;5029590;28;20048;-77
2022/12/25 06:59:10;;;;;;;7.90;3.35;;;;;;;8.31;100.00;101120.47;5029854;28;20032;-77
2022/12/25 07:01:57;;;;;;;8.52;3.00;;;;;;;8.32;100.00;101109.06;5009828;28;20057;-77
2022/12/25 07:04:38;;;;;;;8.27;3.10;;;;;;;8.31;100.00;101115.22;5026704;28;20378;-77
2022/12/25 07:07:14;;;;;;;8.60;3.22;;;;;;;8.29;100.00;101111.84;5025589;28;20025;-78
2022/12/25 07:09:41;;;;;;;6.85;3.17;;;;;;;8.29;100.00;101111.84;5018013;28;20068;-77
2022/12/25 07:12:31;;;;;;;7.30;3.40;;;;;;;8.29;100.00;101117.94;5010409;28;20022;-78
2022/12/25 07:14:57;;;;;;;7.30;3.20;;;;;;;8.28;100.00;101131.16;5012435;28;20037;-77
2022/12/25 07:17:23;;;;;;;9.68;3.50;;;;;;;8.32;100.00;101123.00;5029484;28;20473;-77
2022/12/25 07:19:51;;;;;;;8.60;3.83;;;;;;;8.33;100.00;101131.72;5013455;28;20018;-77
2022/12/25 07:22:17;;;;;;;8.43;3.30;;;;;;;8.32;100.00;101143.97;5030423;28;20476;-77
2022/12/25 07:24:42;;;;;;;10.25;3.22;;;;;;;8.32;100.00;101151.84;5008937;28;20021;-78
2022/12/25 07:27:07;;;;;;;7.30;3.50;;;;;;;8.33;100.00;101152.69;5012491;28;20398;-78
2022/12/25 07:29:33;;;;;;;10.18;3.20;;;;;;;8.32;100.00;101164.09;5030771;28;20029;-77
2022/12/25 07:32:08;;;;;;;11.23;3.33;;;;;;;8.34;100.00;101157.03;5028893;28;20046;-80
2022/12/25 07:34:34;;;;;;;10.65;3.38;;;;;;;8.32;100.00;101169.34;5030321;28;20036;-81
2022/12/25 07:36:59;;;;;;;9.27;3.45;;;;;;;8.33;100.00;101155.31;5031186;28;20025;-78
2022/12/25 07:39:24;;;;;;;6.72;3.05;;;;;;;8.32;100.00;101148.38;5029200;28;20033;-78
2022/12/25 07:41:50;;;;;;;8.70;3.42;;;;;;;8.33;100.00;101129.09;5012666;28;20068;-78
2022/12/25 07:44:15;;;;;;;10.15;3.20;;;;;;;8.37;100.00;101109.66;5030507;28;20059;-77
2022/12/25 07:46:47;;;;;;;10.15;3.35;;;;;;;8.37;100.00;101115.72;5029445;28;20061;-77
2022/12/25 07:49:16;;;;;;;10.70;2.90;;;;;;;8.35;100.00;101129.88;5029004;28;20035;-78
2022/12/25 07:51:41;;;;;;;6.40;3.15;;;;;;;8.38;100.00;101137.53;5025920;28;20497;-78
2022/12/25 07:54:06;;;;;;;9.50;3.22;;;;;;;8.38;100.00;101145.41;5028514;28;20160;-77
2022/12/25 07:56:31;;;;;;;7.20;3.17;;;;;;;8.36;100.00;101148.13;5029417;28;20049;-77
2022/12/25 07:58:57;;;;;;;5.15;2.83;;;;;;;8.35;100.00;101159.56;5007785;28;20056;-77
2022/12/25 08:01:25;;;;;;;6.97;3.13;;;;;;;8.35;100.00;101174.44;5009522;28;20029;-78
2022/12/25 08:03:54;;;;;;;9.35;3.40;;;;;;;8.34;100.00;101180.63;4996903;28;20032;-78
2022/12/25 08:06:20;;;;;;;5.78;3.15;;;;;;;8.35;100.00;101179.69;5028160;28;20032;-77
2022/12/25 08:08:46;;;;;;;8.70;3.22;;;;;;;8.34;100.00;101178.84;5029605;28;20084;-78
2022/12/25 08:11:12;;;;;;;7.18;3.20;;;;;;;8.36;100.00;101181.38;5029099;28;20026;-78
2022/12/25 08:13:38;;;;;;;10.02;3.50;;;;;;;8.34;100.00;101198.97;5032681;28;20037;-76
2022/12/25 08:16:08;;;;;;;7.55;3.00;;;;;;;8.34;100.00;101204.22;5031542;28;20022;-76
2022/12/25 08:18:35;;;;;;;8.68;3.40;;;;;;;8.32;100.00;101212.13;5033560;28;20100;-77
2022/12/25 08:21:06;;;;;;;8.07;3.08;;;;;;;8.33;100.00;101221.72;5032734;28;20024;-77
2022/12/25 08:23:36;;;;;;;7.60;3.25;;;;;;;8.33;100.00;101212.97;5033416;28;20025;-77
2022/12/25 08:26:07;;;;;;;7.82;3.08;;;;;;;8.32;100.00;101191.16;5033430;28;20370;-77
2022/12/25 08:28:38;;;;;;;6.93;2.80;;;;;;;8.33;100.00;101187.63;5032973;28;20026;-77
2022/12/25 08:31:09;;;;;;;7.35;3.20;;;;;;;8.32;100.00;101187.69;5033336;28;20025;-77
2022/12/25 08:33:35;;;;;;;7.93;3.15;;;;;;;8.32;100.00;101196.41;5033422;28;20548;-77
2022/12/25 08:36:05;;;;;;;8.70;3.03;;;;;;;8.32;100.00;101195.56;5033074;28;20025;-77
2022/12/25 08:38:31;;;;;;;11.73;3.65;;;;;;;8.32;100.00;101198.19;5033708;28;20022;-76
2022/12/25 08:40:56;;;;;;;6.25;2.90;;;;;;;8.34;100.00;101196.34;5032570;28;20084;-78
2022/12/25 08:43:23;;;;;;;6.90;3.35;;;;;;;8.35;100.00;101205.91;5012839;28;20559;-78
2022/12/25 08:45:48;;;;;;;7.90;3.72;;;;;;;8.31;100.00;101217.47;5033297;28;20108;-78
2022/12/25 08:48:14;;;;;;;7.85;3.13;;;;;;;8.32;100.00;101206.06;5031311;28;20604;-78
2022/12/25 08:50:45;;;;;;;7.32;2.95;;;;;;;8.29;100.00;101200.97;5032471;28;20151;-84
2022/12/25 08:53:11;;;;;;;6.57;3.30;;;;;;;8.31;100.00;101199.13;5032700;28;20014;-77
2022/12/25 08:55:36;;;;;;;9.20;3.47;;;;;;;8.30;100.00;101202.69;5032283;28;20503;-77
2022/12/25 08:58:04;;;;;;;9.68;3.38;;;;;;;8.31;100.00;101183.38;5011363;28;20033;-77
2022/12/25 09:00:30;;;;;;;8.50;3.63;;;;;;;8.33;100.00;101187.63;5031224;28;20025;-77
2022/12/25 09:02:55;;;;;;;6.97;3.42;;;;;;;8.30;100.00;101186.94;5031189;28;20454;-77
2022/12/25 09:05:21;;;;;;;11.90;3.45;;;;;;;8.30;100.00;101176.47;5025172;28;20057;-77
2022/12/25 09:07:46;;;;;;;8.68;4.13;;;;;;;8.31;100.00;101176.38;5017329;28;20443;-77
2022/12/25 09:10:11;;;;;;;7.90;3.47;;;;;;;8.30;100.00;101168.59;5010051;28;20580;-78
2022/12/25 09:12:37;;;;;;;13.57;4.28;;;;;;;8.29;100.00;101156.41;5032106;28;20112;-77
2022/12/25 09:15:06;;;;;;;7.43;3.58;;;;;;;8.27;100.00;101181.88;5031602;28;20029;-77
2022/12/25 09:17:33;;;;;;;6.78;3.60;;;;;;;8.29;100.00;101196.59;5031337;28;20017;-77
2022/12/25 09:19:59;;;;;;;10.82;4.22;;;;;;;8.32;100.00;101188.53;5031808;28;20064;-77
2022/12/25 09:22:24;;;;;;;9.70;3.80;;;;;;;8.32;100.00;101206.88;5030858;28;20478;-76
2022/12/25 09:24:50;;;;;;;12.98;4.60;;;;;;;8.33;100.00;101197.25;5031217;28;20064;-78
2022/12/25 09:27:15;;;;;;;9.50;4.30;;;;;;;8.34;100.00;101189.31;5032153;28;20024;-78
2022/12/25 09:29:41;;;;;;;10.40;4.22;;;;;;;8.34;100.00;101183.25;5014195;28;20061;-78
2022/12/25 09:32:07;;;;;;;8.38;3.88;;;;;;;8.37;100.00;101183.06;5030731;28;20046;-77
2022/12/25 09:34:33;;;;;;;8.55;4.13;;;;;;;8.32;100.00;101174.59;5013836;28;20036;-77
2022/12/25 09:36:58;;;;;;;9.20;4.43;;;;;;;8.32;100.00;101164.09;5014085;28;20116;-77
2022/12/25 09:39:23;;;;;;;7.95;4.45;;;;;;;8.31;100.00;101149.31;5030585;28;20025;-76
2022/12/25 09:41:55;;;;;;;8.30;4.32;;;;;;;8.29;100.00;101159.03;5032307;28;20466;-77
2022/12/25 09:44:39;;;;;;;9.30;4.10;;;;;;;8.33;100.00;101166.66;5031155;28;20105;-77
2022/12/25 09:47:10;;;;;;;8.15;4.65;;;;;;;8.32;100.00;101164.09;5014094;28;20489;-77
2022/12/25 09:49:59;;;;;;;12.45;5.13;;;;;;;8.33;100.00;101171.03;5031746;28;20029;-75
2022/12/25 09:52:53;;;;;;;9.32;4.20;;;;;;;8.34;100.00;101164.88;5030578;28;20416;-76
2022/12/25 09:55:24;;;;;;;11.90;5.30;;;;;;;8.29;100.00;101143.31;5031715;28;20037;-76
2022/12/25 09:57:58;;;;;;;8.73;4.75;;;;;;;8.33;100.00;101144.81;5014504;28;20048;-77
2022/12/25 10:00:41;;;;;;;9.90;4.78;;;;;;;8.34;100.00;101146.53;5029949;28;20135;-76
2022/12/25 10:03:41;;;;;;;8.70;4.68;;;;;;;8.41;100.00;101140.00;5031920;28;20446;-77
2022/12/25 10:06:26;;;;;;;7.38;4.43;;;;;;;8.39;100.00;101134.00;5011199;28;20037;-76
2022/12/25 10:09:22;;;;;;;9.65;4.78;;;;;;;8.40;100.00;101131.28;5010370;28;20367;-77
2022/12/25 10:12:26;;;;;;;9.57;5.22;;;;;;;8.42;100.00;101124.19;5011308;28;20060;-77
2022/12/25 10:14:51;;;;;;;;;;;;;;;8.50;100.00;101121.09;5013544;28;20116;-77
2022/12/25 10:17:46;;;;;;;9.43;5.10;;;;;;;8.44;100.00;101122.31;5031269;28;20004;-77
2022/12/25 10:20:29;;;;;;;10.38;5.18;;;;;;;8.47;100.00;101131.78;5030111;28;20029;-78
2022/12/25 10:22:59;;;;;;;12.23;4.80;;;;;;;8.45;100.00;101120.53;5031605;28;20026;-78
2022/12/25 10:25:25;;;;;;;8.98;5.30;;;;;;;8.48;100.00;101121.19;5012648;28;20055;-77
2022/12/25 10:27:59;;;;;;;10.65;5.35;;;;;;;8.45;100.00;101113.50;5030415;28;20025;-77
2022/12/25 10:30:27;;;;;;;7.60;5.13;;;;;;;8.47;100.00;101116.88;5030282;28;20041;-76
2022/12/25 10:32:56;;;;;;;12.05;5.20;;;;;;;8.47;100.00;101118.66;5030872;28;20041;-77
2022/12/25 10:35:25;;;;;;;10.48;5.45;;;;;;;8.44;100.00;101121.47;5028996;28;20171;-77
2022/12/25 10:37:59;;;;;;;11.18;6.32;;;;;;;8.46;100.00;101116.97;5030734;28;20030;-76
2022/12/25 10:40:33;;;;;;;8.27;5.43;;;;;;;8.44;100.00;101117.06;5012316;28;20026;-77
2022/12/25 10:43:10;;;;;;;9.00;5.60;;;;;;;8.41;100.00;101119.03;5013757;28;20044;-77
2022/12/25 10:45:45;;;;;;;9.73;5.70;;;;;;;8.41;100.00;101112.00;5031191;28;20028;-76
2022/12/25 10:48:17;;;;;;;9.80;5.68;;;;;;;8.43;100.00;101106.69;5029772;28;20032;-77
2022/12/25 10:50:42;;;;;;;9.77;5.90;;;;;;;8.44;100.00;101095.25;5018571;28;20556;-76
2022/12/25 10:53:26;;;;;;;10.23;5.60;;;;;;;8.45;100.00;101087.28;5011029;28;20026;-77
2022/12/25 10:55:57;;;;;;;9.45;5.88;;;;;;;8.45;100.00;101081.19;5010725;28;20048;-76
2022/12/25 10:58:23;;;;;;;11.82;6.60;;;;;;;8.45;100.00;101060.22;5010751;28;20494;-76
2022/12/25 11:01:01;;;;;;;10.48;6.88;;;;;;;8.46;100.00;101068.00;5016983;28;20067;-76
2022/12/25 11:03:30;;;;;;;9.50;6.22;;;;;;;8.46;100.00;101059.28;5029785;28;20029;-75
2022/12/25 11:05:56;;;;;;;13.25;7.88;;;;;;;8.47;100.00;101058.34;5010769;28;20025;-75
2022/12/25 11:08:24;;;;;;;13.32;7.90;;;;;;;8.48;100.00;101067.91;5012236;28;20124;-77
2022/12/25 11:10:58;;;;;;;11.00;6.95;;;;;;;8.47;100.00;101074.09;5030081;28;20032;-78
2022/12/25 11:13:29;;;;;;;11.18;6.63;;;;;;;8.46;100.00;101056.66;5008629;28;20084;-78
2022/12/25 11:16:14;;;;;;;11.85;7.03;;;;;;;8.54;100.00;101049.16;5010340;28;20030;-77
2022/12/25 11:18:53;;;;;;;10.45;6.68;;;;;;;8.54;100.00;101054.41;5009944;28;20504;-78
2022/12/25 11:21:26;;;;;;;10.57;7.05;;;;;;;8.52;100.00;101043.16;4997928;28;20029;-78
2022/12/25 11:24:26;;;;;;;11.93;7.18;;;;;;;8.56;100.00;101036.78;5010582;28;20513;-77
2022/12/25 11:26:55;;;;;;;12.15;7.00;;;;;;;8.55;100.00;101018.53;5012162;28;20053;-78
2022/12/25 11:29:39;;;;;;;11.80;7.43;;;;;;;8.58;100.00;101008.69;5010751;28;20486;-78
2022/12/25 11:32:14;;;;;;;10.52;7.55;;;;;;;8.56;100.00;101005.31;5028646;28;20045;-75
2022/12/25 11:34:43;;;;;;;12.10;7.30;;;;;;;8.57;100.00;101012.25;5028377;28;20034;-78
2022/12/25 11:37:31;;;;;;;10.25;7.32;;;;;;;8.61;100.00;100998.00;5026531;28;20037;-78
2022/12/25 11:39:57;;;;;;;11.52;7.60;;;;;;;8.56;100.00;100999.25;5024894;28;20184;-77
2022/12/25 11:42:28;;;;;;;10.32;7.20;;;;;;;8.55;100.00;100998.41;5029622;28;20473;-77
2022/12/25 11:45:32;;;;;;;13.55;7.63;;;;;;;8.53;100.00;100995.03;5011274;28;20021;-76
2022/12/25 11:48:15;;;;;;;12.85;7.60;;;;;;;8.56;100.00;100994.84;4949273;29;20135;-76
2022/12/25 11:50:48;;;;;;;11.70;7.80;;;;;;;8.53;100.00;100984.53;5022728;28;20436;-76
2022/12/25 11:53:24;;;;;;;12.10;7.82;;;;;;;8.54;100.00;100980.13;5028795;28;20053;-77
2022/12/25 11:55:54;;;;;;;12.52;8.80;;;;;;;8.52;100.00;100977.63;5010530;28;20056;-76
2022/12/25 11:58:34;;;;;;;10.35;8.90;;;;;;;8.51;100.00;100975.94;5029482;28;20044;-75
2022/12/25 12:01:04;;;;;;;12.05;8.35;;;;;;;8.51;100.00;100978.56;5012675;28;20022;-75
2022/12/25 12:03:34;;;;;;;11.30;9.15;;;;;;;8.51;100.00;100981.19;5012238;28;20476;-76
2022/12/25 12:06:11;;;;;;;13.25;9.50;;;;;;;8.54;100.00;100977.50;5011802;28;20018;-76
2022/12/25 12:08:40;;;;;;;11.55;9.25;;;;;;;8.54;100.00;100980.97;5029566;28;20037;-76
2022/12/25 12:11:17;;;;;;;15.18;12.18;;;;;;;8.52;100.00;100982.00;5029130;28;20091;-75
2022/12/25 12:14:01;;;;;;;18.77;13.93;;;;;;;8.55;100.00;100981.81;5011241;28;20450;-76
2022/12/25 12:16:27;;;;;;;13.38;9.77;;;;;;;8.53;100.00;100981.91;5009934;28;20021;-76
2022/12/25 12:18:53;;;;;;;12.00;9.15;;;;;;;8.52;100.00;100980.22;5010434;28;20479;-78
2022/12/25 12:21:27;;;;;;;13.00;9.85;;;;;;;8.55;100.00;100966.94;5009540;28;20554;-78
2022/12/25 12:24:09;;;;;;;12.98;10.00;;;;;;;8.54;100.00;100969.66;5009870;28;20064;-78
2022/12/25 12:26:39;;;;;;;12.93;10.45;;;;;;;8.53;100.00;100963.56;5010455;28;20022;-78
2022/12/25 12:29:07;;;;;;;12.73;9.77;;;;;;;8.55;100.00;100963.47;5016814;28;20064;-76
2022/12/25 12:31:46;;;;;;;14.90;10.98;;;;;;;8.55;100.00;100956.44;5029482;28;20026;-76
2022/12/25 12:34:27;;;;;;;14.70;11.73;;;;;;;8.54;100.00;100943.41;5028920;28;20032;-75
2022/12/25 12:37:27;;;;;;;14.07;11.15;;;;;;;8.58;100.00;100945.75;5012062;28;20399;-76
2022/12/25 12:39:54;;;;;;;15.27;11.80;;;;;;;8.60;100.00;100930.75;5029917;28;20022;-75
2022/12/25 12:42:27;;;;;;;14.77;11.57;;;;;;;8.63;100.00;100933.19;5010328;28;20029;-77
2022/12/25 12:45:05;;;;;;;13.00;11.43;;;;;;;8.64;100.00;100940.09;5029094;28;20104;-76
2022/12/25 12:47:42;;;;;;;13.40;12.00;;;;;;;8.66;100.00;100946.09;5027290;28;20033;-76
2022/12/25 12:50:35;;;;;;;15.00;12.85;;;;;;;8.70;100.00;100939.72;5029007;28;20025;-75
2022/12/25 12:53:22;;;;;;;15.20;12.68;;;;;;;8.69;100.00;100943.28;5011478;28;20025;-77
2022/12/25 12:56:10;;;;;;;17.13;13.60;;;;;;;8.68;100.00;100938.13;5028908;28;20040;-76
2022/12/25 12:58:56;;;;;;;16.98;13.95;;;;;;;8.68;100.00;100936.34;5031368;28;20040;-77
2022/12/25 13:01:33;;;;;;;20.35;14.73;;;;;;;8.69;100.00;100932.78;5030916;28;20045;-77
2022/12/25 13:04:36;;;;;;;19.85;16.13;;;;;;;8.74;100.00;100924.59;5024577;28;20078;-76
2022/12/25 13:07:34;;;;;;;19.23;16.20;;;;;;;8.75;100.00;100929.75;5012767;28;20030;-77
2022/12/25 13:10:22;;;;;;;17.08;15.13;;;;;;;8.71;100.00;100912.53;5012978;28;20030;-77
2022/12/25 13:12:58;;;;;;;21.83;19.58;;;;;;;8.74;100.00;100912.34;5019719;28;20018;-77
2022/12/25 13:15:33;;;;;;;17.70;15.80;;;;;;;8.73;100.00;100894.06;5031267;28;20104;-77
2022/12/25 13:18:05;;;;;;;19.42;16.63;;;;;;;8.75;100.00;100895.66;5015282;28;20052;-77
2022/12/25 13:20:53;;;;;;;18.17;16.27;;;;;;;8.79;100.00;100884.00;5012975;28;20056;-76
2022/12/25 13:23:26;;;;;;;17.20;15.50;;;;;;;8.76;100.00;100886.00;5031934;28;20465;-77